Time;durP1;ratioP1;P1;durP2;ratioP2;P2;SDS_P1;SDS_P2;PMS_P1;PMS_P2;Temp;Humidity;BMP_temperature;BMP_pressure;BME280_temperature;BME280_humidity;BME280_pressure;Samples;Min_cycle;Max_cycle;Signal;HPM_P1;HPM_P2
2023/10/14 18:41:12;;;;;;;7.47;3.92;;;;;;;19.09;51.71;98455.34;5165335;27;20525;-76
2023/10/14 18:45:43;;;;;;;7.80;4.30;;;;;;;19.73;51.43;98541.81;5161375;27;20123;-75
2023/10/14 18:48:12;;;;;;;7.93;4.70;;;;;;;19.76;52.91;98549.56;5144007;27;20051;-76
2023/10/14 18:50:42;;;;;;;5.95;3.80;;;;;;;19.80;51.88;98559.00;5126305;28;20302;-75
2023/10/14 18:53:12;;;;;;;10.07;3.90;;;;;;;19.81;51.27;98564.25;5143135;28;20070;-73
2023/10/14 18:55:42;;;;;;;5.68;3.45;;;;;;;19.85;51.79;98583.56;5143818;27;20031;-73
2023/10/14 18:58:11;;;;;;;7.43;4.97;;;;;;;19.86;51.79;98593.31;5142949;28;20035;-73
2023/10/14 19:00:46;;;;;;;8.68;3.85;;;;;;;19.90;52.10;98605.44;5143998;27;20291;-73
2023/10/14 19:03:16;;;;;;;6.57;3.83;;;;;;;19.90;52.08;98601.91;5143653;27;20299;-74
2023/10/14 19:05:44;;;;;;;5.28;3.20;;;;;;;19.87;51.87;98611.16;5143649;27;20039;-74
2023/10/14 19:08:15;;;;;;;4.15;2.60;;;;;;;19.84;52.37;98617.69;5143906;27;20047;-73
2023/10/14 19:10:48;;;;;;;4.50;2.88;;;;;;;19.69;51.98;98605.81;5142605;28;20203;-75
2023/10/14 19:13:17;;;;;;;4.70;3.20;;;;;;;19.68;51.49;98608.66;5143072;28;20039;-75
2023/10/14 19:15:53;;;;;;;5.35;4.28;;;;;;;19.83;51.91;98628.59;5125976;28;20067;-76
2023/10/14 19:18:20;;;;;;;4.50;3.15;;;;;;;19.76;52.15;98614.94;5142753;27;20039;-76
2023/10/14 19:20:50;;;;;;;3.65;2.95;;;;;;;19.78;52.17;98642.50;5143273;27;20269;-77
2023/10/14 19:23:23;;;;;;;3.40;2.45;;;;;;;19.39;52.74;98587.50;5143737;27;20066;-76
2023/10/14 19:25:52;;;;;;;4.67;3.27;;;;;;;19.81;52.72;98666.41;5143349;27;20047;-76
2023/10/14 19:28:21;;;;;;;3.50;2.45;;;;;;;19.75;54.71;98680.44;5142463;28;20078;-75
2023/10/14 19:30:56;;;;;;;4.38;2.53;;;;;;;19.53;54.58;98637.97;5143271;27;20220;-75
2023/10/14 19:33:24;;;;;;;;;;;;;;;19.68;56.22;98670.50;5142817;28;20070;-76
2023/10/14 19:36:05;;;;;;;6.63;2.85;;;;;;;19.49;58.37;98667.00;5143633;27;19969;-76
2023/10/14 19:38:34;;;;;;;4.43;2.72;;;;;;;19.60;56.88;98675.81;5142325;28;20070;-75
2023/10/14 19:41:02;;;;;;;3.45;2.45;;;;;;;19.58;57.14;98672.44;5142919;28;20046;-76
2023/10/14 19:43:30;;;;;;;3.72;2.40;;;;;;;19.59;56.66;98692.94;5144181;27;20039;-76
2023/10/14 19:46:04;;;;;;;6.97;4.90;;;;;;;19.44;58.77;98668.50;5145791;27;20053;-76
2023/10/14 19:48:33;;;;;;;4.20;2.55;;;;;;;19.46;58.48;98675.41;5163486;27;20046;-76
2023/10/14 19:51:07;;;;;;;3.33;1.92;;;;;;;19.09;58.71;98626.41;5145703;27;20168;-76
2023/10/14 19:53:34;;;;;;;;;;;;;;;19.54;58.07;98694.25;5145861;27;20035;-75
2023/10/14 19:56:02;;;;;;;5.45;1.95;;;;;;;19.49;58.42;98693.03;5137392;27;20014;-75
2023/10/14 19:58:33;;;;;;;2.80;2.08;;;;;;;19.28;58.82;98671.03;5131600;27;20042;-75
2023/10/14 20:01:14;;;;;;;2.97;1.67;;;;;;;19.24;58.88;98700.88;5149558;27;20349;-75
2023/10/14 20:03:44;;;;;;;2.90;2.05;;;;;;;19.07;58.49;98789.53;5131400;27;20043;-76
2023/10/14 20:06:18;;;;;;;2.90;1.88;;;;;;;19.36;58.66;98701.47;5131385;27;20084;-75
2023/10/14 20:08:46;;;;;;;3.00;1.80;;;;;;;19.30;59.32;98701.25;5149346;27;20330;-74
2023/10/14 20:11:14;;;;;;;2.45;1.80;;;;;;;19.18;60.54;98703.34;5131193;27;20046;-75
2023/10/14 20:13:43;;;;;;;2.70;1.92;;;;;;;19.06;60.71;98700.06;5131315;27;20043;-76
2023/10/14 20:16:13;;;;;;;3.08;2.20;;;;;;;18.82;60.88;98691.78;5132289;27;20047;-76
2023/10/14 20:18:40;;;;;;;4.75;3.30;;;;;;;18.88;61.54;98691.16;5131118;27;20046;-75
2023/10/14 20:21:08;;;;;;;3.25;2.00;;;;;;;18.74;61.30;98678.28;5149125;27;20070;-75
2023/10/14 20:23:35;;;;;;;2.90;2.13;;;;;;;18.74;61.65;98705.09;5131337;27;20212;-76
2023/10/14 20:26:09;;;;;;;3.78;2.35;;;;;;;18.84;61.33;98711.25;5149332;27;20043;-76
2023/10/14 20:28:38;;;;;;;4.13;2.83;;;;;;;18.70;62.18;98714.47;5149161;27;20215;-76
2023/10/14 20:31:10;;;;;;;6.25;2.53;;;;;;;18.65;62.41;98711.38;5149055;27;20035;-75
2023/10/14 20:33:39;;;;;;;11.45;9.25;;;;;;;18.55;62.22;98720.34;5148681;27;20050;-76
2023/10/14 20:36:06;;;;;;;8.73;6.07;;;;;;;18.54;62.60;98721.34;5149190;27;20321;-75
2023/10/14 20:38:33;;;;;;;4.53;3.20;;;;;;;18.36;62.17;98706.16;5131582;27;20261;-75
2023/10/14 20:41:00;;;;;;;5.13;3.83;;;;;;;18.42;63.43;98730.56;5148965;27;20291;-75
2023/10/14 20:43:27;;;;;;;4.50;3.40;;;;;;;18.57;62.47;98730.94;5148340;27;20053;-76
2023/10/14 20:45:54;;;;;;;6.55;4.05;;;;;;;18.52;62.12;98733.22;5148280;27;20043;-76
2023/10/14 20:48:21;;;;;;;3.47;2.50;;;;;;;18.41;62.74;98733.38;5131200;27;20043;-75
2023/10/14 20:50:50;;;;;;;3.67;2.35;;;;;;;18.36;63.59;98738.34;5149160;27;20049;-75
2023/10/14 20:53:17;;;;;;;2.83;1.80;;;;;;;18.32;62.78;98710.97;5131613;27;20035;-75
2023/10/14 20:55:46;;;;;;;17.92;2.85;;;;;;;18.63;62.35;98749.09;5148954;27;20217;-75
2023/10/14 20:58:13;;;;;;;14.15;2.80;;;;;;;18.71;61.46;98751.88;5131136;27;20035;-74
2023/10/14 21:00:40;;;;;;;4.63;2.38;;;;;;;18.65;62.91;98748.97;5148689;27;20046;-75
2023/10/14 21:03:20;;;;;;;3.10;1.85;;;;;;;18.48;62.92;98742.53;5130337;27;20315;-75
2023/10/14 21:05:55;;;;;;;3.28;2.20;;;;;;;18.33;63.19;98754.75;5148488;27;20084;-75
2023/10/14 21:08:25;;;;;;;9.85;2.78;;;;;;;18.26;65.69;98758.00;5147755;27;20088;-75
2023/10/14 21:10:55;;;;;;;3.72;1.80;;;;;;;18.26;66.23;98768.75;5148733;27;20302;-75
2023/10/14 21:13:24;;;;;;;2.20;1.38;;;;;;;18.25;66.19;98767.06;5130084;27;20039;-75
2023/10/14 21:15:57;;;;;;;3.85;1.60;;;;;;;18.35;65.65;98772.38;5129981;27;20031;-75
2023/10/14 21:18:25;;;;;;;2.90;1.65;;;;;;;18.20;65.29;98772.00;5147909;27;20064;-74
2023/10/14 21:20:54;;;;;;;3.60;1.80;;;;;;;18.14;68.06;98786.00;5130737;27;20049;-74
2023/10/14 21:23:21;;;;;;;3.75;2.13;;;;;;;18.00;69.05;98786.47;5129889;27;20118;-74
2023/10/14 21:25:55;;;;;;;4.07;2.22;;;;;;;17.77;71.01;98763.69;5147801;27;20107;-74
2023/10/14 21:28:22;;;;;;;3.03;1.50;;;;;;;17.90;71.00;98793.69;5131042;27;20206;-74
2023/10/14 21:30:49;;;;;;;7.00;1.90;;;;;;;18.06;71.01;98801.13;5147622;27;20039;-75
2023/10/14 21:33:18;;;;;;;4.57;1.90;;;;;;;17.97;71.85;98799.31;5147974;27;20039;-74
2023/10/14 21:35:46;;;;;;;3.58;2.20;;;;;;;17.65;71.87;98759.47;5147404;27;20047;-75
2023/10/14 21:38:15;;;;;;;3.85;2.17;;;;;;;17.81;71.45;98805.28;5130489;27;20078;-75
2023/10/14 21:40:42;;;;;;;5.05;1.77;;;;;;;17.56;71.96;98814.72;5148146;27;20050;-75
2023/10/14 21:43:10;;;;;;;3.13;1.83;;;;;;;17.53;72.21;98820.38;5129529;27;20062;-75
2023/10/14 21:45:36;;;;;;;3.70;2.03;;;;;;;17.61;72.31;98820.53;5147251;27;20062;-75
2023/10/14 21:48:04;;;;;;;2.70;1.50;;;;;;;17.22;71.60;98793.72;5147732;27;20114;-75
2023/10/14 21:50:32;;;;;;;2.47;1.50;;;;;;;16.89;72.14;98757.44;5147318;27;20042;-74
2023/10/14 21:52:59;;;;;;;3.83;2.70;;;;;;;17.36;71.64;98813.03;5147806;27;20066;-74
2023/10/14 21:55:28;;;;;;;3.75;2.85;;;;;;;17.24;71.37;98828.38;5147792;27;20035;-75
2023/10/14 21:57:56;;;;;;;4.10;3.08;;;;;;;17.39;70.76;98829.66;5129832;27;20035;-75
2023/10/14 22:00:29;;;;;;;3.42;2.40;;;;;;;16.81;70.64;98765.31;5129212;27;20121;-75
2023/10/14 22:02:56;;;;;;;2.93;2.07;;;;;;;17.36;69.45;98808.53;5129213;27;20035;-75
2023/10/14 22:05:27;;;;;;;4.25;2.50;;;;;;;16.89;69.54;98745.88;5146966;27;20288;-75
2023/10/14 22:07:56;;;;;;;4.03;2.75;;;;;;;17.34;69.46;98834.59;5147087;27;20039;-75
2023/10/14 22:10:28;;;;;;;4.68;2.95;;;;;;;17.19;68.86;98842.16;5129125;27;20047;-75
2023/10/14 22:12:57;;;;;;;3.05;2.17;;;;;;;16.23;68.75;98705.44;5129114;27;20092;-75
2023/10/14 22:15:28;;;;;;;3.08;1.92;;;;;;;16.80;69.00;98827.00;5147302;27;20190;-74
2023/10/14 22:17:57;;;;;;;2.95;1.98;;;;;;;16.99;69.83;98854.66;5129329;27;20058;-75
2023/10/14 22:20:27;;;;;;;4.90;1.77;;;;;;;16.61;69.96;98815.22;5146918;27;20087;-75
2023/10/14 22:22:54;;;;;;;3.28;2.25;;;;;;;16.96;69.25;98862.13;5146947;27;20047;-76
2023/10/14 22:25:21;;;;;;;2.88;1.80;;;;;;;16.70;68.99;98885.84;5146850;27;20107;-75
2023/10/14 22:27:48;;;;;;;3.80;2.10;;;;;;;16.02;69.13;98799.91;5147129;27;20279;-74
2023/10/14 22:30:19;;;;;;;5.82;2.33;;;;;;;16.42;70.00;98894.53;5147341;27;20047;-74
2023/10/14 22:32:46;;;;;;;3.47;2.15;;;;;;;16.29;69.18;98834.09;5147033;27;20043;-74
2023/10/14 22:35:14;;;;;;;2.33;1.40;;;;;;;15.98;69.42;98813.66;5112094;27;20035;-75
2023/10/14 22:37:43;;;;;;;3.22;1.85;;;;;;;16.42;69.07;98881.16;5146928;27;20059;-77
2023/10/14 22:40:14;;;;;;;4.68;1.75;;;;;;;16.73;69.37;98901.63;5129727;28;20291;-77
2023/10/14 22:42:41;;;;;;;3.10;1.90;;;;;;;16.42;70.23;98889.19;5128865;28;20039;-74
2023/10/14 22:45:10;;;;;;;2.90;1.70;;;;;;;16.38;70.37;98901.97;5146448;28;20047;-74
2023/10/14 22:47:40;;;;;;;2.45;1.70;;;;;;;16.18;69.86;98890.31;5146924;28;20051;-75
2023/10/14 22:50:09;;;;;;;5.20;2.05;;;;;;;16.19;68.64;98921.44;5128651;28;20114;-74
2023/10/14 22:52:38;;;;;;;4.10;2.92;;;;;;;16.19;70.03;98918.75;5146891;28;20241;-75
2023/10/14 22:55:06;;;;;;;3.63;2.25;;;;;;;16.05;69.60;98911.06;5146720;28;20076;-74
2023/10/14 22:57:34;;;;;;;3.35;2.33;;;;;;;16.06;70.26;98901.22;5147144;28;20118;-75
2023/10/14 23:00:11;;;;;;;3.35;1.90;;;;;;;16.18;70.77;98900.16;5146488;28;20042;-75
2023/10/14 23:02:40;;;;;;;4.18;2.50;;;;;;;16.30;70.12;98888.41;5128537;28;20039;-75
2023/10/14 23:05:09;;;;;;;3.03;2.00;;;;;;;15.74;69.99;98794.38;5129516;28;20039;-76
2023/10/14 23:07:37;;;;;;;5.25;2.50;;;;;;;16.43;69.19;98893.56;5128731;28;20039;-75
2023/10/14 23:10:04;;;;;;;4.78;2.30;;;;;;;16.34;68.71;98904.06;5146655;28;20062;-75
2023/10/14 23:12:35;;;;;;;3.15;1.98;;;;;;;16.17;68.31;98911.84;5146423;28;20068;-75
2023/10/14 23:15:04;;;;;;;3.67;2.40;;;;;;;16.11;69.52;98915.88;5128379;28;20039;-76
2023/10/14 23:17:30;;;;;;;7.45;2.67;;;;;;;16.03;69.52;98921.88;5128281;28;20360;-75
2023/10/14 23:19:59;;;;;;;4.22;1.98;;;;;;;16.12;69.35;98908.72;5146945;28;20187;-73
2023/10/14 23:22:25;;;;;;;3.50;1.85;;;;;;;15.92;70.13;98923.75;5146878;28;20186;-75
2023/10/14 23:24:52;;;;;;;2.90;2.08;;;;;;;16.07;69.48;98924.28;5146738;28;20043;-74
2023/10/14 23:27:19;;;;;;;3.42;2.10;;;;;;;16.15;69.06;98929.84;5128502;28;20122;-76
2023/10/14 23:29:47;;;;;;;5.05;2.38;;;;;;;15.59;69.26;98839.25;5146677;27;20062;-75
2023/10/14 23:32:14;;;;;;;4.03;2.47;;;;;;;16.04;68.78;98933.41;5149845;27;20055;-73
2023/10/14 23:34:41;;;;;;;4.72;2.33;;;;;;;16.19;68.79;98945.50;5150700;27;20265;-75
2023/10/14 23:37:10;;;;;;;4.32;2.03;;;;;;;15.77;68.14;98877.78;5132079;27;20038;-75
2023/10/14 23:39:37;;;;;;;2.83;2.00;;;;;;;15.98;68.80;98947.28;5132413;27;20035;-75
2023/10/14 23:42:03;;;;;;;3.65;1.90;;;;;;;15.97;69.45;98937.59;5132627;27;20039;-74
2023/10/14 23:44:30;;;;;;;3.90;2.28;;;;;;;16.00;68.90;98930.16;5149668;27;20059;-74
2023/10/14 23:46:57;;;;;;;3.95;2.22;;;;;;;16.09;68.73;98920.50;5149774;27;20047;-74
2023/10/14 23:49:24;;;;;;;3.63;2.40;;;;;;;15.16;68.52;98784.06;5150173;27;20110;-74
2023/10/14 23:51:50;;;;;;;6.57;3.20;;;;;;;16.12;68.27;98930.94;5150073;27;20115;-74
2023/10/14 23:54:19;;;;;;;6.45;3.17;;;;;;;16.17;68.49;98931.41;5132574;27;20043;-74
2023/10/14 23:56:46;;;;;;;5.22;3.28;;;;;;;16.10;67.77;98937.41;5150174;27;20043;-74
2023/10/14 23:59:15;;;;;;;3.75;2.50;;;;;;;16.02;68.09;98938.88;5131866;27;20311;-74
